sensor_id;sensor_type;location;lat;lon;timestamp;pressure;altitude;pressure_sealevel;temperature;humidity
41467;BME280;72625;53.700;19.958;2024-03-07T03:50:19;101384.97;;;0.67;73.52
41467;BME280;72625;53.700;19.958;2024-03-07T03:55:33;101393.36;;;0.40;73.49
41467;BME280;72625;53.700;19.958;2024-03-07T04:00:44;101392.34;;;0.16;73.48
41467;BME280;72625;53.700;19.958;2024-03-07T04:06:07;101395.32;;;-0.01;73.58
41467;BME280;72625;53.700;19.958;2024-03-07T04:11:12;101394.48;;;-0.19;73.99
41467;BME280;72625;53.700;19.958;2024-03-07T04:16:15;101395.33;;;-0.33;73.53
41467;BME280;72625;53.700;19.958;2024-03-07T04:27:34;101396.71;;;-0.52;73.82
41467;BME280;72625;53.700;19.958;2024-03-07T04:38:24;101391.00;;;-0.61;74.16
41467;BME280;72625;53.700;19.958;2024-03-07T04:49:53;101395.70;;;-0.65;73.70
41467;BME280;72625;53.700;19.958;2024-03-07T04:55:21;101394.07;;;-0.65;73.61
41467;BME280;72625;53.700;19.958;2024-03-07T05:06:40;101390.15;;;-0.69;73.56
41467;BME280;72625;53.700;19.958;2024-03-07T05:12:07;101395.27;;;-0.72;74.19
41467;BME280;72625;53.700;19.958;2024-03-07T05:29:42;101398.34;;;-0.74;74.22
41467;BME280;72625;53.700;19.958;2024-03-07T06:11:08;101400.70;;;-0.27;74.70
41467;BME280;72625;53.700;19.958;2024-03-07T06:16:51;101401.11;;;-0.11;73.96
41467;BME280;72625;53.700;19.958;2024-03-07T06:22:54;101401.52;;;-0.01;74.41
41467;BME280;72625;53.700;19.958;2024-03-07T06:28:39;101406.16;;;0.10;74.73
41467;BME280;72625;53.700;19.958;2024-03-07T06:34:25;101410.86;;;0.18;74.81
41467;BME280;72625;53.700;19.958;2024-03-07T06:57:49;101419.67;;;0.50;74.50
41467;BME280;72625;53.700;19.958;2024-03-07T07:33:29;101423.69;;;1.38;74.54
41467;BME280;72625;53.700;19.958;2024-03-07T07:38:51;101427.00;;;1.52;74.57
41467;BME280;72625;53.700;19.958;2024-03-07T07:44:17;101423.96;;;1.57;74.48
41467;BME280;72625;53.700;19.958;2024-03-07T07:50:02;101430.77;;;1.63;74.44
41467;BME280;72625;53.700;19.958;2024-03-07T07:55:06;101432.18;;;1.65;74.46
41467;BME280;72625;53.700;19.958;2024-03-07T08:00:36;101430.77;;;1.71;74.61
41467;BME280;72625;53.700;19.958;2024-03-07T08:24:02;101424.35;;;2.34;74.33
41467;BME280;72625;53.700;19.958;2024-03-07T08:35:26;101420.42;;;2.66;73.95
41467;BME280;72625;53.700;19.958;2024-03-07T08:46:42;101420.14;;;2.90;73.69
41467;BME280;72625;53.700;19.958;2024-03-07T08:52:02;101413.35;;;3.01;73.49
41467;BME280;72625;53.700;19.958;2024-03-07T09:03:38;101407.61;;;3.32;72.99
41467;BME280;72625;53.700;19.958;2024-03-07T09:09:08;101411.30;;;3.47;72.94
41467;BME280;72625;53.700;19.958;2024-03-07T09:14:32;101403.54;;;3.58;72.78
41467;BME280;72625;53.700;19.958;2024-03-07T09:24:59;101406.52;;;3.80;72.37
41467;BME280;72625;53.700;19.958;2024-03-07T09:42:20;101403.08;;;4.09;71.92
41467;BME280;72625;53.700;19.958;2024-03-07T10:17:08;101395.79;;;4.88;70.93
41467;BME280;72625;53.700;19.958;2024-03-07T10:22:53;101398.65;;;4.94;69.60
41467;BME280;72625;53.700;19.958;2024-03-07T10:28:40;101398.13;;;5.03;69.86
41467;BME280;72625;53.700;19.958;2024-03-07T10:34:04;101394.10;;;5.13;70.06
41467;BME280;72625;53.700;19.958;2024-03-07T11:03:16;101377.77;;;5.65;67.00
41467;BME280;72625;53.700;19.958;2024-03-07T11:09:08;101382.17;;;5.72;65.73
41467;BME280;72625;53.700;19.958;2024-03-07T11:26:31;101364.80;;;6.06;66.82
41467;BME280;72625;53.700;19.958;2024-03-07T11:32:25;101364.01;;;6.15;65.67
41467;BME280;72625;53.700;19.958;2024-03-07T11:38:07;101357.57;;;6.17;65.93
41467;BME280;72625;53.700;19.958;2024-03-07T11:43:38;101352.61;;;6.22;65.95
41467;BME280;72625;53.700;19.958;2024-03-07T11:48:49;101350.68;;;6.33;65.63
41467;BME280;72625;53.700;19.958;2024-03-07T11:54:01;101347.89;;;6.39;65.69
41467;BME280;72625;53.700;19.958;2024-03-07T11:59:19;101341.12;;;6.43;65.21
41467;BME280;72625;53.700;19.958;2024-03-07T12:10:17;101332.86;;;6.61;64.52
41467;BME280;72625;53.700;19.958;2024-03-07T12:15:48;101324.27;;;6.67;63.18
41467;BME280;72625;53.700;19.958;2024-03-07T12:21:04;101320.20;;;6.72;63.87
41467;BME280;72625;53.700;19.958;2024-03-07T12:26:11;101320.83;;;6.78;64.40
41467;BME280;72625;53.700;19.958;2024-03-07T12:31:39;101315.02;;;6.80;63.19
41467;BME280;72625;53.700;19.958;2024-03-07T12:37:12;101315.80;;;6.79;61.77
41467;BME280;72625;53.700;19.958;2024-03-07T12:42:56;101308.05;;;6.90;61.61
41467;BME280;72625;53.700;19.958;2024-03-07T12:53:59;101297.11;;;7.01;61.61
41467;BME280;72625;53.700;19.958;2024-03-07T12:59:09;101296.73;;;7.05;61.24
41467;BME280;72625;53.700;19.958;2024-03-07T13:04:11;101290.10;;;7.10;60.93
41467;BME280;72625;53.700;19.958;2024-03-07T13:09:42;101284.05;;;7.11;60.64
41467;BME280;72625;53.700;19.958;2024-03-07T13:14:46;101283.41;;;7.17;59.74
41467;BME280;72625;53.700;19.958;2024-03-07T13:20:00;101278.28;;;7.19;58.55
41467;BME280;72625;53.700;19.958;2024-03-07T13:25:06;101279.89;;;7.23;59.53
41467;BME280;72625;53.700;19.958;2024-03-07T13:30:15;101277.83;;;7.24;58.97
41467;BME280;72625;53.700;19.958;2024-03-07T13:35:58;101265.88;;;7.22;57.31
41467;BME280;72625;53.700;19.958;2024-03-07T13:41:10;101267.08;;;7.25;56.07
41467;BME280;72625;53.700;19.958;2024-03-07T13:46:24;101263.60;;;7.23;56.31
41467;BME280;72625;53.700;19.958;2024-03-07T13:51:56;101261.49;;;7.22;56.68
41467;BME280;72625;53.700;19.958;2024-03-07T14:03:39;101251.96;;;7.25;56.55
41467;BME280;72625;53.700;19.958;2024-03-07T14:09:14;101253.34;;;7.28;56.33
41467;BME280;72625;53.700;19.958;2024-03-07T14:38:29;101228.83;;;7.15;54.23
41467;BME280;72625;53.700;19.958;2024-03-07T14:43:45;101224.40;;;7.12;54.26
41467;BME280;72625;53.700;19.958;2024-03-07T15:06:08;101218.05;;;7.07;54.14
41467;BME280;72625;53.700;19.958;2024-03-07T15:11:32;101215.10;;;7.01;53.71
41467;BME280;72625;53.700;19.958;2024-03-07T15:16:47;101209.71;;;7.00;53.96
41467;BME280;72625;53.700;19.958;2024-03-07T15:22:01;101210.77;;;6.97;53.93
41467;BME280;72625;53.700;19.958;2024-03-07T15:27:05;101206.67;;;6.88;53.14
41467;BME280;72625;53.700;19.958;2024-03-07T15:32:15;101206.35;;;6.80;53.56
41467;BME280;72625;53.700;19.958;2024-03-07T15:37:29;101201.17;;;6.75;53.60
41467;BME280;72625;53.700;19.958;2024-03-07T15:43:05;101203.66;;;6.71;53.11
41467;BME280;72625;53.700;19.958;2024-03-07T15:48:20;101203.95;;;6.61;52.71
41467;BME280;72625;53.700;19.958;2024-03-07T15:58:58;101203.83;;;6.43;52.65
41467;BME280;72625;53.700;19.958;2024-03-07T16:04:21;101206.00;;;6.33;52.27
41467;BME280;72625;53.700;19.958;2024-03-07T16:14:48;101204.06;;;6.06;52.56
41467;BME280;72625;53.700;19.958;2024-03-07T16:20:01;101206.64;;;5.93;52.50
41467;BME280;72625;53.700;19.958;2024-03-07T16:25:09;101203.80;;;5.80;52.63
41467;BME280;72625;53.700;19.958;2024-03-07T16:30:36;101200.67;;;5.66;52.79
41467;BME280;72625;53.700;19.958;2024-03-07T16:36:11;101203.77;;;5.52;52.69
41467;BME280;72625;53.700;19.958;2024-03-07T16:47:06;101200.77;;;5.22;52.66
41467;BME280;72625;53.700;19.958;2024-03-07T16:52:35;101198.77;;;5.10;52.85
41467;BME280;72625;53.700;19.958;2024-03-07T16:58:25;101195.84;;;4.96;52.76
41467;BME280;72625;53.700;19.958;2024-03-07T17:03:48;101192.11;;;4.84;52.69
41467;BME280;72625;53.700;19.958;2024-03-07T17:15:15;101202.67;;;4.53;52.95
41467;BME280;72625;53.700;19.958;2024-03-07T17:21:19;101201.05;;;4.37;53.23
41467;BME280;72625;53.700;19.958;2024-03-07T17:32:50;101199.41;;;4.03;53.46
41467;BME280;72625;53.700;19.958;2024-03-07T17:50:12;101200.06;;;3.71;53.58
41467;BME280;72625;53.700;19.958;2024-03-07T17:55:19;101198.55;;;3.58;53.49
41467;BME280;72625;53.700;19.958;2024-03-07T18:01:04;101198.96;;;3.43;53.70
41467;BME280;72625;53.700;19.958;2024-03-07T18:06:11;101196.86;;;3.28;53.72
41467;BME280;72625;53.700;19.958;2024-03-07T18:11:29;101191.19;;;3.20;53.90
41467;BME280;72625;53.700;19.958;2024-03-07T18:16:34;101191.13;;;3.11;53.96
41467;BME280;72625;53.700;19.958;2024-03-07T18:27:12;101185.30;;;2.89;54.07
41467;BME280;72625;53.700;19.958;2024-03-07T18:32:25;101185.52;;;2.79;54.23
41467;BME280;72625;53.700;19.958;2024-03-07T18:37:56;101183.41;;;2.67;54.55
41467;BME280;72625;53.700;19.958;2024-03-07T18:43:18;101182.15;;;2.57;54.66
41467;BME280;72625;53.700;19.958;2024-03-07T18:55:29;101183.55;;;2.27;55.16
41467;BME280;72625;53.700;19.958;2024-03-07T19:00:54;101183.19;;;2.08;55.61
41467;BME280;72625;53.700;19.958;2024-03-07T19:34:27;101197.83;;;1.44;57.58
41467;BME280;72625;53.700;19.958;2024-03-07T19:39:42;101199.85;;;1.34;57.28
41467;BME280;72625;53.700;19.958;2024-03-07T19:45:37;101197.27;;;1.29;57.00
41467;BME280;72625;53.700;19.958;2024-03-07T19:50:40;101198.05;;;1.30;57.46
41467;BME280;72625;53.700;19.958;2024-03-07T19:56:05;101195.48;;;1.28;57.29
41467;BME280;72625;53.700;19.958;2024-03-07T20:12:58;101186.39;;;1.27;58.87
41467;BME280;72625;53.700;19.958;2024-03-07T20:18:28;101186.14;;;1.23;59.12
41467;BME280;72625;53.700;19.958;2024-03-07T20:35:44;101181.83;;;1.07;59.24
41467;BME280;72625;53.700;19.958;2024-03-07T20:40:56;101174.39;;;0.97;59.47
41467;BME280;72625;53.700;19.958;2024-03-07T20:46:07;101174.80;;;0.90;59.85
41467;BME280;72625;53.700;19.958;2024-03-07T21:08:01;101181.48;;;0.76;60.67
41467;BME280;72625;53.700;19.958;2024-03-07T21:13:26;101180.00;;;0.74;61.96
41467;BME280;72625;53.700;19.958;2024-03-07T21:24:36;101182.61;;;0.89;61.46
41467;BME280;72625;53.700;19.958;2024-03-07T21:47:45;101178.18;;;0.80;61.54
41467;BME280;72625;53.700;19.958;2024-03-07T21:53:08;101179.76;;;0.81;61.76
41467;BME280;72625;53.700;19.958;2024-03-07T21:58:43;101182.63;;;0.74;61.60
41467;BME280;72625;53.700;19.958;2024-03-07T22:15:22;101176.75;;;0.58;62.47
41467;BME280;72625;53.700;19.958;2024-03-07T22:21:00;101175.45;;;0.44;63.17
41467;BME280;72625;53.700;19.958;2024-03-07T22:26:18;101175.30;;;0.36;62.95
41467;BME280;72625;53.700;19.958;2024-03-07T22:31:38;101168.83;;;0.31;62.92
41467;BME280;72625;53.700;19.958;2024-03-07T22:37:06;101171.79;;;0.34;62.59
41467;BME280;72625;53.700;19.958;2024-03-07T22:42:23;101170.31;;;0.34;63.03
41467;BME280;72625;53.700;19.958;2024-03-07T22:47:54;101171.45;;;0.32;62.86
41467;BME280;72625;53.700;19.958;2024-03-07T22:59:20;101179.94;;;0.07;63.75
41467;BME280;72625;53.700;19.958;2024-03-07T23:05:24;101174.20;;;-0.05;63.86
41467;BME280;72625;53.700;19.958;2024-03-07T23:16:02;101175.47;;;-0.28;64.51
41467;BME280;72625;53.700;19.958;2024-03-07T23:21:37;101175.13;;;-0.36;64.65
41467;BME280;72625;53.700;19.958;2024-03-07T23:27:23;101170.45;;;-0.39;64.15
41467;BME280;72625;53.700;19.958;2024-03-07T23:32:51;101171.92;;;-0.33;64.18
